sensor_id;sensor_type;location;lat;lon;timestamp;P1;durP1;ratioP1;P2;durP2;ratioP2
6095;SDS011;25081;42.698;23.298;2023-07-29T00:01:01;6.40;;;4.53;;
6095;SDS011;25081;42.698;23.298;2023-07-29T00:03:12;5.37;;;3.90;;
6095;SDS011;25081;42.698;23.298;2023-07-29T00:05:22;6.83;;;4.30;;
6095;SDS011;25081;42.698;23.298;2023-07-29T00:07:33;5.60;;;4.00;;
6095;SDS011;25081;42.698;23.298;2023-07-29T00:09:43;5.70;;;3.80;;
6095;SDS011;25081;42.698;23.298;2023-07-29T00:11:54;5.03;;;4.10;;
6095;SDS011;25081;42.698;23.298;2023-07-29T00:14:05;7.10;;;4.70;;
6095;SDS011;25081;42.698;23.298;2023-07-29T00:16:15;6.67;;;4.53;;
6095;SDS011;25081;42.698;23.298;2023-07-29T00:18:26;7.47;;;4.43;;
6095;SDS011;25081;42.698;23.298;2023-07-29T00:20:36;9.97;;;5.00;;
6095;SDS011;25081;42.698;23.298;2023-07-29T00:22:47;5.60;;;4.10;;
6095;SDS011;25081;42.698;23.298;2023-07-29T00:24:58;6.00;;;4.33;;
6095;SDS011;25081;42.698;23.298;2023-07-29T00:27:08;5.30;;;4.17;;
6095;SDS011;25081;42.698;23.298;2023-07-29T00:29:19;6.57;;;3.70;;
6095;SDS011;25081;42.698;23.298;2023-07-29T00:31:29;11.70;;;4.07;;
6095;SDS011;25081;42.698;23.298;2023-07-29T00:33:40;5.23;;;3.90;;
6095;SDS011;25081;42.698;23.298;2023-07-29T00:35:50;5.93;;;4.10;;
6095;SDS011;25081;42.698;23.298;2023-07-29T00:38:01;5.10;;;3.60;;
6095;SDS011;25081;42.698;23.298;2023-07-29T00:40:14;7.43;;;4.50;;
6095;SDS011;25081;42.698;23.298;2023-07-29T00:42:25;7.70;;;4.20;;
6095;SDS011;25081;42.698;23.298;2023-07-29T00:44:35;4.93;;;3.83;;
6095;SDS011;25081;42.698;23.298;2023-07-29T00:46:46;11.70;;;4.17;;
6095;SDS011;25081;42.698;23.298;2023-07-29T00:48:56;6.70;;;3.90;;
6095;SDS011;25081;42.698;23.298;2023-07-29T00:51:07;6.60;;;4.17;;
6095;SDS011;25081;42.698;23.298;2023-07-29T00:53:17;5.23;;;4.40;;
6095;SDS011;25081;42.698;23.298;2023-07-29T00:55:28;5.80;;;4.40;;
6095;SDS011;25081;42.698;23.298;2023-07-29T00:57:39;6.23;;;3.80;;
6095;SDS011;25081;42.698;23.298;2023-07-29T00:59:49;5.13;;;4.60;;
6095;SDS011;25081;42.698;23.298;2023-07-29T01:02:00;4.43;;;3.70;;
6095;SDS011;25081;42.698;23.298;2023-07-29T01:04:10;4.30;;;3.90;;
6095;SDS011;25081;42.698;23.298;2023-07-29T01:06:22;6.50;;;4.80;;
6095;SDS011;25081;42.698;23.298;2023-07-29T01:08:33;4.40;;;3.90;;
6095;SDS011;25081;42.698;23.298;2023-07-29T01:10:45;4.47;;;3.90;;
6095;SDS011;25081;42.698;23.298;2023-07-29T01:12:56;5.97;;;4.30;;
6095;SDS011;25081;42.698;23.298;2023-07-29T01:15:09;4.97;;;4.03;;
6095;SDS011;25081;42.698;23.298;2023-07-29T01:17:21;4.33;;;3.93;;
6095;SDS011;25081;42.698;23.298;2023-07-29T01:19:40;6.57;;;4.23;;
6095;SDS011;25081;42.698;23.298;2023-07-29T01:21:56;5.73;;;3.60;;
6095;SDS011;25081;42.698;23.298;2023-07-29T01:24:06;4.50;;;4.10;;
6095;SDS011;25081;42.698;23.298;2023-07-29T01:26:17;4.73;;;4.00;;
6095;SDS011;25081;42.698;23.298;2023-07-29T01:28:27;6.57;;;4.23;;
6095;SDS011;25081;42.698;23.298;2023-07-29T01:30:39;6.30;;;4.50;;
6095;SDS011;25081;42.698;23.298;2023-07-29T01:32:50;4.53;;;4.00;;
6095;SDS011;25081;42.698;23.298;2023-07-29T01:35:02;7.07;;;5.00;;
6095;SDS011;25081;42.698;23.298;2023-07-29T01:37:11;4.77;;;4.30;;
6095;SDS011;25081;42.698;23.298;2023-07-29T01:39:21;6.70;;;4.40;;
6095;SDS011;25081;42.698;23.298;2023-07-29T01:41:32;6.20;;;4.10;;
6095;SDS011;25081;42.698;23.298;2023-07-29T01:43:42;5.60;;;4.00;;
6095;SDS011;25081;42.698;23.298;2023-07-29T01:45:53;5.40;;;4.50;;
6095;SDS011;25081;42.698;23.298;2023-07-29T01:48:04;6.63;;;4.57;;
6095;SDS011;25081;42.698;23.298;2023-07-29T01:50:14;5.40;;;4.40;;
6095;SDS011;25081;42.698;23.298;2023-07-29T01:52:25;4.97;;;4.20;;
6095;SDS011;25081;42.698;23.298;2023-07-29T01:54:35;8.47;;;5.33;;
6095;SDS011;25081;42.698;23.298;2023-07-29T01:56:46;6.40;;;4.40;;
6095;SDS011;25081;42.698;23.298;2023-07-29T01:58:56;7.17;;;5.03;;
6095;SDS011;25081;42.698;23.298;2023-07-29T02:01:07;7.40;;;4.63;;
6095;SDS011;25081;42.698;23.298;2023-07-29T02:03:17;6.70;;;5.20;;
6095;SDS011;25081;42.698;23.298;2023-07-29T02:05:28;5.87;;;4.70;;
6095;SDS011;25081;42.698;23.298;2023-07-29T02:07:38;9.70;;;5.70;;
6095;SDS011;25081;42.698;23.298;2023-07-29T02:09:49;7.13;;;5.07;;
6095;SDS011;25081;42.698;23.298;2023-07-29T02:11:59;6.60;;;5.07;;
6095;SDS011;25081;42.698;23.298;2023-07-29T02:14:10;10.13;;;5.00;;
6095;SDS011;25081;42.698;23.298;2023-07-29T02:16:21;6.07;;;4.60;;
6095;SDS011;25081;42.698;23.298;2023-07-29T02:18:31;6.20;;;4.87;;
6095;SDS011;25081;42.698;23.298;2023-07-29T02:20:42;8.67;;;5.77;;
6095;SDS011;25081;42.698;23.298;2023-07-29T02:22:52;9.00;;;5.63;;
6095;SDS011;25081;42.698;23.298;2023-07-29T02:25:04;5.77;;;5.17;;
6095;SDS011;25081;42.698;23.298;2023-07-29T02:27:15;5.13;;;4.23;;
6095;SDS011;25081;42.698;23.298;2023-07-29T02:29:25;5.20;;;4.70;;
6095;SDS011;25081;42.698;23.298;2023-07-29T02:31:36;4.97;;;4.57;;
6095;SDS011;25081;42.698;23.298;2023-07-29T02:33:47;6.43;;;4.87;;
6095;SDS011;25081;42.698;23.298;2023-07-29T02:35:58;6.60;;;5.40;;
6095;SDS011;25081;42.698;23.298;2023-07-29T02:38:09;5.37;;;4.43;;
6095;SDS011;25081;42.698;23.298;2023-07-29T02:40:19;8.40;;;4.60;;
6095;SDS011;25081;42.698;23.298;2023-07-29T02:42:30;4.90;;;4.37;;
6095;SDS011;25081;42.698;23.298;2023-07-29T02:44:40;5.87;;;4.87;;
6095;SDS011;25081;42.698;23.298;2023-07-29T02:46:51;6.67;;;5.07;;
6095;SDS011;25081;42.698;23.298;2023-07-29T02:49:02;5.20;;;4.40;;
6095;SDS011;25081;42.698;23.298;2023-07-29T02:51:12;5.70;;;4.70;;
6095;SDS011;25081;42.698;23.298;2023-07-29T02:53:23;6.20;;;4.60;;
6095;SDS011;25081;42.698;23.298;2023-07-29T02:55:33;6.70;;;4.83;;
6095;SDS011;25081;42.698;23.298;2023-07-29T02:57:44;7.30;;;4.77;;
6095;SDS011;25081;42.698;23.298;2023-07-29T02:59:54;5.50;;;4.83;;
6095;SDS011;25081;42.698;23.298;2023-07-29T03:02:05;6.10;;;4.53;;
6095;SDS011;25081;42.698;23.298;2023-07-29T03:04:15;7.20;;;4.90;;
6095;SDS011;25081;42.698;23.298;2023-07-29T03:06:26;5.27;;;4.53;;
6095;SDS011;25081;42.698;23.298;2023-07-29T03:08:36;5.27;;;4.33;;
6095;SDS011;25081;42.698;23.298;2023-07-29T03:10:47;5.30;;;4.27;;
6095;SDS011;25081;42.698;23.298;2023-07-29T03:12:57;6.70;;;4.50;;
6095;SDS011;25081;42.698;23.298;2023-07-29T03:15:08;4.93;;;4.30;;
6095;SDS011;25081;42.698;23.298;2023-07-29T03:17:19;6.70;;;5.30;;
6095;SDS011;25081;42.698;23.298;2023-07-29T03:19:30;5.80;;;4.60;;
6095;SDS011;25081;42.698;23.298;2023-07-29T03:21:41;5.40;;;4.70;;
6095;SDS011;25081;42.698;23.298;2023-07-29T03:23:51;5.90;;;4.37;;
6095;SDS011;25081;42.698;23.298;2023-07-29T03:26:02;5.33;;;4.37;;
6095;SDS011;25081;42.698;23.298;2023-07-29T03:28:13;4.80;;;4.30;;
6095;SDS011;25081;42.698;23.298;2023-07-29T03:30:23;8.03;;;4.70;;
6095;SDS011;25081;42.698;23.298;2023-07-29T03:32:34;6.00;;;4.30;;
6095;SDS011;25081;42.698;23.298;2023-07-29T03:34:44;7.20;;;4.47;;
6095;SDS011;25081;42.698;23.298;2023-07-29T03:36:55;6.50;;;4.70;;
6095;SDS011;25081;42.698;23.298;2023-07-29T03:39:05;6.50;;;4.27;;
6095;SDS011;25081;42.698;23.298;2023-07-29T03:41:16;7.13;;;4.87;;
6095;SDS011;25081;42.698;23.298;2023-07-29T03:43:27;7.33;;;4.33;;
6095;SDS011;25081;42.698;23.298;2023-07-29T03:45:39;7.60;;;5.47;;
6095;SDS011;25081;42.698;23.298;2023-07-29T03:47:48;8.93;;;7.40;;
6095;SDS011;25081;42.698;23.298;2023-07-29T03:49:58;10.40;;;6.57;;
6095;SDS011;25081;42.698;23.298;2023-07-29T03:52:09;24.63;;;22.03;;
6095;SDS011;25081;42.698;23.298;2023-07-29T03:54:19;6.80;;;4.47;;
6095;SDS011;25081;42.698;23.298;2023-07-29T03:56:30;7.73;;;4.53;;
6095;SDS011;25081;42.698;23.298;2023-07-29T03:58:40;8.47;;;4.40;;
6095;SDS011;25081;42.698;23.298;2023-07-29T04:00:51;7.17;;;4.40;;
6095;SDS011;25081;42.698;23.298;2023-07-29T04:03:01;5.30;;;4.67;;
6095;SDS011;25081;42.698;23.298;2023-07-29T04:05:12;6.43;;;4.67;;
6095;SDS011;25081;42.698;23.298;2023-07-29T04:07:22;7.73;;;4.40;;
6095;SDS011;25081;42.698;23.298;2023-07-29T04:09:33;7.20;;;4.57;;
6095;SDS011;25081;42.698;23.298;2023-07-29T04:11:43;7.20;;;5.10;;
6095;SDS011;25081;42.698;23.298;2023-07-29T04:13:54;6.60;;;4.40;;
6095;SDS011;25081;42.698;23.298;2023-07-29T04:16:05;5.50;;;4.13;;
6095;SDS011;25081;42.698;23.298;2023-07-29T04:18:15;6.00;;;4.97;;
6095;SDS011;25081;42.698;23.298;2023-07-29T04:20:26;8.50;;;4.60;;
6095;SDS011;25081;42.698;23.298;2023-07-29T04:22:36;8.30;;;4.80;;
6095;SDS011;25081;42.698;23.298;2023-07-29T04:24:47;6.67;;;4.70;;
6095;SDS011;25081;42.698;23.298;2023-07-29T04:26:58;7.87;;;4.60;;
6095;SDS011;25081;42.698;23.298;2023-07-29T04:29:08;7.77;;;5.30;;
6095;SDS011;25081;42.698;23.298;2023-07-29T04:31:19;5.37;;;4.40;;
6095;SDS011;25081;42.698;23.298;2023-07-29T04:33:30;5.60;;;4.50;;
6095;SDS011;25081;42.698;23.298;2023-07-29T04:35:40;9.80;;;5.40;;
6095;SDS011;25081;42.698;23.298;2023-07-29T04:37:51;9.20;;;5.77;;
6095;SDS011;25081;42.698;23.298;2023-07-29T04:40:01;8.40;;;5.43;;
6095;SDS011;25081;42.698;23.298;2023-07-29T04:42:12;8.13;;;5.50;;
6095;SDS011;25081;42.698;23.298;2023-07-29T04:44:23;6.00;;;5.10;;
6095;SDS011;25081;42.698;23.298;2023-07-29T04:46:33;6.00;;;4.80;;
6095;SDS011;25081;42.698;23.298;2023-07-29T04:48:44;5.20;;;4.30;;
6095;SDS011;25081;42.698;23.298;2023-07-29T04:50:54;8.30;;;5.20;;
6095;SDS011;25081;42.698;23.298;2023-07-29T04:53:05;5.83;;;4.80;;
6095;SDS011;25081;42.698;23.298;2023-07-29T04:55:15;7.40;;;4.53;;
6095;SDS011;25081;42.698;23.298;2023-07-29T04:57:26;6.77;;;4.73;;
6095;SDS011;25081;42.698;23.298;2023-07-29T04:59:36;5.90;;;4.70;;
6095;SDS011;25081;42.698;23.298;2023-07-29T05:01:47;6.67;;;5.20;;
6095;SDS011;25081;42.698;23.298;2023-07-29T05:03:58;6.83;;;4.97;;
6095;SDS011;25081;42.698;23.298;2023-07-29T05:06:08;5.63;;;4.70;;
6095;SDS011;25081;42.698;23.298;2023-07-29T05:08:19;10.10;;;5.30;;
6095;SDS011;25081;42.698;23.298;2023-07-29T05:10:29;7.37;;;4.90;;
6095;SDS011;25081;42.698;23.298;2023-07-29T05:12:40;6.72;;;5.20;;
6095;SDS011;25081;42.698;23.298;2023-07-29T05:14:50;6.33;;;5.53;;
6095;SDS011;25081;42.698;23.298;2023-07-29T05:17:01;6.33;;;5.00;;
6095;SDS011;25081;42.698;23.298;2023-07-29T05:19:11;7.33;;;5.10;;
6095;SDS011;25081;42.698;23.298;2023-07-29T05:21:22;7.10;;;5.40;;
6095;SDS011;25081;42.698;23.298;2023-07-29T05:23:33;11.67;;;5.13;;
6095;SDS011;25081;42.698;23.298;2023-07-29T05:25:43;5.87;;;5.27;;
6095;SDS011;25081;42.698;23.298;2023-07-29T05:27:55;7.50;;;4.97;;
6095;SDS011;25081;42.698;23.298;2023-07-29T05:30:09;8.90;;;5.33;;
6095;SDS011;25081;42.698;23.298;2023-07-29T05:32:19;6.30;;;4.80;;
6095;SDS011;25081;42.698;23.298;2023-07-29T05:34:30;10.53;;;5.23;;
6095;SDS011;25081;42.698;23.298;2023-07-29T05:36:40;6.13;;;5.37;;
6095;SDS011;25081;42.698;23.298;2023-07-29T05:38:51;8.87;;;5.73;;
6095;SDS011;25081;42.698;23.298;2023-07-29T05:41:01;9.20;;;5.90;;
6095;SDS011;25081;42.698;23.298;2023-07-29T05:43:12;9.73;;;5.53;;
6095;SDS011;25081;42.698;23.298;2023-07-29T05:45:23;5.97;;;4.80;;
6095;SDS011;25081;42.698;23.298;2023-07-29T05:47:33;7.43;;;5.83;;
6095;SDS011;25081;42.698;23.298;2023-07-29T05:49:44;9.43;;;5.80;;
6095;SDS011;25081;42.698;23.298;2023-07-29T05:51:54;8.53;;;6.30;;
6095;SDS011;25081;42.698;23.298;2023-07-29T05:54:04;6.50;;;4.73;;
6095;SDS011;25081;42.698;23.298;2023-07-29T05:56:15;9.27;;;5.17;;
6095;SDS011;25081;42.698;23.298;2023-07-29T05:58:25;10.43;;;6.40;;
6095;SDS011;25081;42.698;23.298;2023-07-29T06:00:36;12.93;;;5.73;;
6095;SDS011;25081;42.698;23.298;2023-07-29T06:02:46;5.67;;;4.67;;
6095;SDS011;25081;42.698;23.298;2023-07-29T06:04:57;8.33;;;5.80;;
6095;SDS011;25081;42.698;23.298;2023-07-29T06:07:08;8.10;;;5.57;;
6095;SDS011;25081;42.698;23.298;2023-07-29T06:09:18;11.63;;;5.53;;
6095;SDS011;25081;42.698;23.298;2023-07-29T06:11:29;8.87;;;6.70;;
6095;SDS011;25081;42.698;23.298;2023-07-29T06:13:39;10.20;;;6.10;;
6095;SDS011;25081;42.698;23.298;2023-07-29T06:15:49;7.30;;;5.33;;
6095;SDS011;25081;42.698;23.298;2023-07-29T06:18:00;8.40;;;5.47;;
6095;SDS011;25081;42.698;23.298;2023-07-29T06:20:11;7.23;;;6.43;;
6095;SDS011;25081;42.698;23.298;2023-07-29T06:22:22;7.77;;;5.73;;
6095;SDS011;25081;42.698;23.298;2023-07-29T06:24:32;10.20;;;5.43;;
6095;SDS011;25081;42.698;23.298;2023-07-29T06:26:43;6.10;;;4.77;;
6095;SDS011;25081;42.698;23.298;2023-07-29T06:28:53;7.73;;;6.10;;
6095;SDS011;25081;42.698;23.298;2023-07-29T06:31:04;7.90;;;5.23;;
6095;SDS011;25081;42.698;23.298;2023-07-29T06:33:14;9.93;;;6.17;;
6095;SDS011;25081;42.698;23.298;2023-07-29T06:35:25;10.10;;;6.10;;
6095;SDS011;25081;42.698;23.298;2023-07-29T06:37:35;7.30;;;5.53;;
6095;SDS011;25081;42.698;23.298;2023-07-29T06:39:46;7.60;;;5.50;;
6095;SDS011;25081;42.698;23.298;2023-07-29T06:41:56;7.70;;;4.97;;
6095;SDS011;25081;42.698;23.298;2023-07-29T06:44:07;8.20;;;5.33;;
6095;SDS011;25081;42.698;23.298;2023-07-29T06:46:17;8.97;;;5.20;;
6095;SDS011;25081;42.698;23.298;2023-07-29T06:48:28;7.40;;;5.77;;
6095;SDS011;25081;42.698;23.298;2023-07-29T06:50:39;6.40;;;5.00;;
6095;SDS011;25081;42.698;23.298;2023-07-29T06:52:49;6.17;;;5.40;;
6095;SDS011;25081;42.698;23.298;2023-07-29T06:55:00;6.50;;;5.57;;
6095;SDS011;25081;42.698;23.298;2023-07-29T06:57:11;6.80;;;5.50;;
6095;SDS011;25081;42.698;23.298;2023-07-29T06:59:21;5.47;;;4.43;;
6095;SDS011;25081;42.698;23.298;2023-07-29T07:01:33;9.23;;;5.20;;
6095;SDS011;25081;42.698;23.298;2023-07-29T07:03:43;7.00;;;5.37;;
6095;SDS011;25081;42.698;23.298;2023-07-29T07:05:54;8.00;;;5.70;;
6095;SDS011;25081;42.698;23.298;2023-07-29T07:08:04;7.23;;;5.87;;
6095;SDS011;25081;42.698;23.298;2023-07-29T07:10:15;5.97;;;5.27;;
6095;SDS011;25081;42.698;23.298;2023-07-29T07:12:26;8.93;;;5.87;;
6095;SDS011;25081;42.698;23.298;2023-07-29T07:14:36;7.40;;;5.43;;
6095;SDS011;25081;42.698;23.298;2023-07-29T07:16:47;13.63;;;5.83;;
6095;SDS011;25081;42.698;23.298;2023-07-29T07:18:57;7.63;;;5.20;;
6095;SDS011;25081;42.698;23.298;2023-07-29T07:21:08;11.40;;;5.73;;
6095;SDS011;25081;42.698;23.298;2023-07-29T07:23:18;10.77;;;5.73;;
6095;SDS011;25081;42.698;23.298;2023-07-29T07:25:29;6.20;;;5.00;;
6095;SDS011;25081;42.698;23.298;2023-07-29T07:27:39;10.07;;;5.57;;
6095;SDS011;25081;42.698;23.298;2023-07-29T07:29:50;8.60;;;5.57;;
6095;SDS011;25081;42.698;23.298;2023-07-29T07:32:01;7.60;;;5.87;;
6095;SDS011;25081;42.698;23.298;2023-07-29T07:34:12;8.87;;;5.70;;
6095;SDS011;25081;42.698;23.298;2023-07-29T07:36:22;6.77;;;5.27;;
6095;SDS011;25081;42.698;23.298;2023-07-29T07:38:33;6.83;;;4.60;;
6095;SDS011;25081;42.698;23.298;2023-07-29T07:40:46;10.57;;;5.43;;
6095;SDS011;25081;42.698;23.298;2023-07-29T07:43:02;10.77;;;5.97;;
6095;SDS011;25081;42.698;23.298;2023-07-29T07:45:13;9.07;;;5.87;;
6095;SDS011;25081;42.698;23.298;2023-07-29T07:47:24;8.97;;;5.57;;
6095;SDS011;25081;42.698;23.298;2023-07-29T07:49:34;6.70;;;5.20;;
6095;SDS011;25081;42.698;23.298;2023-07-29T07:51:45;9.10;;;4.93;;
6095;SDS011;25081;42.698;23.298;2023-07-29T07:53:55;9.43;;;5.00;;
6095;SDS011;25081;42.698;23.298;2023-07-29T07:56:06;9.33;;;5.13;;
6095;SDS011;25081;42.698;23.298;2023-07-29T07:58:16;6.70;;;5.27;;
6095;SDS011;25081;42.698;23.298;2023-07-29T08:00:27;9.57;;;4.50;;
6095;SDS011;25081;42.698;23.298;2023-07-29T08:02:37;5.60;;;3.97;;
6095;SDS011;25081;42.698;23.298;2023-07-29T08:04:48;7.20;;;5.30;;
6095;SDS011;25081;42.698;23.298;2023-07-29T08:06:58;9.13;;;5.17;;
6095;SDS011;25081;42.698;23.298;2023-07-29T08:09:09;8.50;;;5.07;;
6095;SDS011;25081;42.698;23.298;2023-07-29T08:11:19;12.43;;;5.40;;
6095;SDS011;25081;42.698;23.298;2023-07-29T08:13:30;6.60;;;4.00;;
6095;SDS011;25081;42.698;23.298;2023-07-29T08:15:41;5.83;;;4.50;;
6095;SDS011;25081;42.698;23.298;2023-07-29T08:17:51;5.93;;;4.70;;
6095;SDS011;25081;42.698;23.298;2023-07-29T08:20:02;8.30;;;5.50;;
6095;SDS011;25081;42.698;23.298;2023-07-29T08:22:14;14.03;;;5.00;;
6095;SDS011;25081;42.698;23.298;2023-07-29T08:24:25;8.87;;;5.17;;
6095;SDS011;25081;42.698;23.298;2023-07-29T08:26:35;8.47;;;5.20;;
6095;SDS011;25081;42.698;23.298;2023-07-29T08:28:46;8.13;;;4.17;;
6095;SDS011;25081;42.698;23.298;2023-07-29T08:30:56;9.63;;;4.37;;
6095;SDS011;25081;42.698;23.298;2023-07-29T08:33:07;10.60;;;4.87;;
6095;SDS011;25081;42.698;23.298;2023-07-29T08:35:17;9.00;;;4.27;;
6095;SDS011;25081;42.698;23.298;2023-07-29T08:37:28;5.47;;;3.97;;
6095;SDS011;25081;42.698;23.298;2023-07-29T08:39:38;5.70;;;3.87;;
6095;SDS011;25081;42.698;23.298;2023-07-29T08:41:51;5.70;;;4.00;;
6095;SDS011;25081;42.698;23.298;2023-07-29T08:44:05;4.83;;;4.00;;
6095;SDS011;25081;42.698;23.298;2023-07-29T08:46:13;7.33;;;3.67;;
6095;SDS011;25081;42.698;23.298;2023-07-29T08:48:26;4.70;;;4.03;;
6095;SDS011;25081;42.698;23.298;2023-07-29T08:50:35;7.90;;;4.03;;
6095;SDS011;25081;42.698;23.298;2023-07-29T08:52:46;5.93;;;3.60;;
6095;SDS011;25081;42.698;23.298;2023-07-29T08:54:56;8.93;;;4.07;;
6095;SDS011;25081;42.698;23.298;2023-07-29T08:57:07;6.67;;;3.50;;
6095;SDS011;25081;42.698;23.298;2023-07-29T08:59:17;5.60;;;3.60;;
6095;SDS011;25081;42.698;23.298;2023-07-29T09:01:28;3.10;;;2.70;;
6095;SDS011;25081;42.698;23.298;2023-07-29T09:03:38;3.37;;;2.90;;
6095;SDS011;25081;42.698;23.298;2023-07-29T09:05:49;3.43;;;2.80;;
6095;SDS011;25081;42.698;23.298;2023-07-29T09:07:59;5.20;;;3.07;;
6095;SDS011;25081;42.698;23.298;2023-07-29T09:10:10;5.83;;;2.67;;
6095;SDS011;25081;42.698;23.298;2023-07-29T09:12:20;3.60;;;3.17;;
6095;SDS011;25081;42.698;23.298;2023-07-29T09:14:31;4.40;;;3.20;;
6095;SDS011;25081;42.698;23.298;2023-07-29T09:16:42;4.40;;;3.67;;
6095;SDS011;25081;42.698;23.298;2023-07-29T09:18:52;3.87;;;3.27;;
6095;SDS011;25081;42.698;23.298;2023-07-29T09:21:03;3.90;;;2.90;;
6095;SDS011;25081;42.698;23.298;2023-07-29T09:23:14;3.90;;;3.10;;
6095;SDS011;25081;42.698;23.298;2023-07-29T09:25:25;3.63;;;2.90;;
6095;SDS011;25081;42.698;23.298;2023-07-29T09:27:35;4.20;;;2.53;;
6095;SDS011;25081;42.698;23.298;2023-07-29T09:29:46;4.63;;;2.80;;
6095;SDS011;25081;42.698;23.298;2023-07-29T09:32:07;6.33;;;2.27;;
6095;SDS011;25081;42.698;23.298;2023-07-29T09:34:28;3.37;;;2.30;;
6095;SDS011;25081;42.698;23.298;2023-07-29T09:36:38;2.40;;;2.07;;
6095;SDS011;25081;42.698;23.298;2023-07-29T09:38:50;4.20;;;2.53;;
6095;SDS011;25081;42.698;23.298;2023-07-29T09:41:00;5.10;;;2.10;;
6095;SDS011;25081;42.698;23.298;2023-07-29T09:43:11;2.60;;;2.10;;
6095;SDS011;25081;42.698;23.298;2023-07-29T09:45:22;4.60;;;2.27;;
6095;SDS011;25081;42.698;23.298;2023-07-29T09:47:32;4.10;;;2.50;;
6095;SDS011;25081;42.698;23.298;2023-07-29T09:49:43;3.00;;;2.13;;
6095;SDS011;25081;42.698;23.298;2023-07-29T09:51:56;3.83;;;2.10;;
6095;SDS011;25081;42.698;23.298;2023-07-29T09:54:06;2.47;;;1.90;;
6095;SDS011;25081;42.698;23.298;2023-07-29T09:56:17;3.67;;;2.40;;
6095;SDS011;25081;42.698;23.298;2023-07-29T09:58:27;2.90;;;2.20;;
6095;SDS011;25081;42.698;23.298;2023-07-29T10:00:38;3.60;;;2.67;;
6095;SDS011;25081;42.698;23.298;2023-07-29T10:02:48;3.10;;;2.17;;
6095;SDS011;25081;42.698;23.298;2023-07-29T10:04:58;3.07;;;2.23;;
6095;SDS011;25081;42.698;23.298;2023-07-29T10:07:10;3.20;;;2.20;;
6095;SDS011;25081;42.698;23.298;2023-07-29T10:09:20;5.17;;;2.70;;
6095;SDS011;25081;42.698;23.298;2023-07-29T10:11:31;3.10;;;2.50;;
6095;SDS011;25081;42.698;23.298;2023-07-29T10:13:41;3.80;;;2.03;;
6095;SDS011;25081;42.698;23.298;2023-07-29T10:15:52;2.40;;;1.83;;
6095;SDS011;25081;42.698;23.298;2023-07-29T10:18:03;3.10;;;1.93;;
6095;SDS011;25081;42.698;23.298;2023-07-29T10:20:14;2.63;;;1.90;;
6095;SDS011;25081;42.698;23.298;2023-07-29T10:22:27;2.30;;;1.90;;
6095;SDS011;25081;42.698;23.298;2023-07-29T10:24:36;2.23;;;1.70;;
6095;SDS011;25081;42.698;23.298;2023-07-29T10:26:47;2.90;;;1.73;;
6095;SDS011;25081;42.698;23.298;2023-07-29T10:28:57;2.40;;;1.77;;
6095;SDS011;25081;42.698;23.298;2023-07-29T10:31:07;2.80;;;2.00;;
6095;SDS011;25081;42.698;23.298;2023-07-29T10:33:18;2.17;;;1.63;;
6095;SDS011;25081;42.698;23.298;2023-07-29T10:35:28;3.83;;;1.97;;
6095;SDS011;25081;42.698;23.298;2023-07-29T10:37:39;3.03;;;2.07;;
6095;SDS011;25081;42.698;23.298;2023-07-29T10:39:53;2.80;;;2.30;;
6095;SDS011;25081;42.698;23.298;2023-07-29T10:42:05;3.27;;;1.60;;
6095;SDS011;25081;42.698;23.298;2023-07-29T10:46:58;3.10;;;2.17;;
6095;SDS011;25081;42.698;23.298;2023-07-29T10:49:08;3.67;;;2.00;;
6095;SDS011;25081;42.698;23.298;2023-07-29T10:51:26;2.83;;;1.97;;
6095;SDS011;25081;42.698;23.298;2023-07-29T10:53:37;3.33;;;2.10;;
6095;SDS011;25081;42.698;23.298;2023-07-29T10:55:48;3.90;;;1.80;;
6095;SDS011;25081;42.698;23.298;2023-07-29T10:58:08;2.73;;;2.10;;
6095;SDS011;25081;42.698;23.298;2023-07-29T11:00:20;2.90;;;2.13;;
6095;SDS011;25081;42.698;23.298;2023-07-29T11:02:31;4.50;;;2.10;;
6095;SDS011;25081;42.698;23.298;2023-07-29T11:04:47;3.20;;;1.90;;
6095;SDS011;25081;42.698;23.298;2023-07-29T11:09:51;2.53;;;1.80;;
6095;SDS011;25081;42.698;23.298;2023-07-29T11:12:05;2.80;;;1.83;;
6095;SDS011;25081;42.698;23.298;2023-07-29T11:14:16;8.43;;;1.70;;
6095;SDS011;25081;42.698;23.298;2023-07-29T11:16:26;7.30;;;2.10;;
6095;SDS011;25081;42.698;23.298;2023-07-29T11:18:37;2.50;;;1.73;;
6095;SDS011;25081;42.698;23.298;2023-07-29T11:20:47;2.90;;;1.87;;
6095;SDS011;25081;42.698;23.298;2023-07-29T11:22:59;2.50;;;1.80;;
6095;SDS011;25081;42.698;23.298;2023-07-29T11:25:09;3.30;;;1.77;;
6095;SDS011;25081;42.698;23.298;2023-07-29T11:27:19;3.80;;;1.93;;
6095;SDS011;25081;42.698;23.298;2023-07-29T11:29:29;3.70;;;2.10;;
6095;SDS011;25081;42.698;23.298;2023-07-29T11:31:40;2.43;;;1.90;;
6095;SDS011;25081;42.698;23.298;2023-07-29T11:33:51;3.13;;;2.33;;
6095;SDS011;25081;42.698;23.298;2023-07-29T11:36:01;3.03;;;1.87;;
6095;SDS011;25081;42.698;23.298;2023-07-29T11:38:15;5.10;;;1.80;;
6095;SDS011;25081;42.698;23.298;2023-07-29T11:40:26;2.80;;;1.80;;
6095;SDS011;25081;42.698;23.298;2023-07-29T11:42:37;2.37;;;1.57;;
6095;SDS011;25081;42.698;23.298;2023-07-29T11:44:47;3.00;;;2.17;;
6095;SDS011;25081;42.698;23.298;2023-07-29T11:46:57;2.40;;;1.60;;
6095;SDS011;25081;42.698;23.298;2023-07-29T11:49:08;5.13;;;1.80;;
6095;SDS011;25081;42.698;23.298;2023-07-29T11:51:18;2.70;;;1.90;;
6095;SDS011;25081;42.698;23.298;2023-07-29T11:53:29;2.50;;;1.80;;
6095;SDS011;25081;42.698;23.298;2023-07-29T11:55:39;3.93;;;2.23;;
6095;SDS011;25081;42.698;23.298;2023-07-29T11:57:51;2.67;;;2.03;;
6095;SDS011;25081;42.698;23.298;2023-07-29T12:00:01;3.30;;;2.07;;
6095;SDS011;25081;42.698;23.298;2023-07-29T12:02:12;2.50;;;2.00;;
6095;SDS011;25081;42.698;23.298;2023-07-29T12:04:22;4.00;;;1.80;;
6095;SDS011;25081;42.698;23.298;2023-07-29T12:06:32;3.90;;;2.10;;
6095;SDS011;25081;42.698;23.298;2023-07-29T12:08:43;3.07;;;1.70;;
6095;SDS011;25081;42.698;23.298;2023-07-29T12:10:54;6.20;;;2.07;;
6095;SDS011;25081;42.698;23.298;2023-07-29T12:13:04;2.50;;;2.10;;
6095;SDS011;25081;42.698;23.298;2023-07-29T12:15:23;2.70;;;1.97;;
6095;SDS011;25081;42.698;23.298;2023-07-29T12:17:38;4.60;;;2.70;;
6095;SDS011;25081;42.698;23.298;2023-07-29T12:19:49;4.50;;;2.00;;
6095;SDS011;25081;42.698;23.298;2023-07-29T12:22:00;2.50;;;1.90;;
6095;SDS011;25081;42.698;23.298;2023-07-29T12:24:10;2.90;;;2.00;;
6095;SDS011;25081;42.698;23.298;2023-07-29T12:26:22;3.00;;;2.27;;
6095;SDS011;25081;42.698;23.298;2023-07-29T12:28:37;2.50;;;1.90;;
6095;SDS011;25081;42.698;23.298;2023-07-29T12:30:47;3.23;;;2.10;;
6095;SDS011;25081;42.698;23.298;2023-07-29T12:32:58;2.60;;;2.03;;
6095;SDS011;25081;42.698;23.298;2023-07-29T12:35:10;3.10;;;1.77;;
6095;SDS011;25081;42.698;23.298;2023-07-29T12:37:30;2.70;;;2.00;;
6095;SDS011;25081;42.698;23.298;2023-07-29T12:39:31;3.67;;;2.20;;
6095;SDS011;25081;42.698;23.298;2023-07-29T12:41:42;3.40;;;1.80;;
6095;SDS011;25081;42.698;23.298;2023-07-29T12:43:52;3.57;;;2.30;;
6095;SDS011;25081;42.698;23.298;2023-07-29T12:46:02;2.70;;;1.77;;
6095;SDS011;25081;42.698;23.298;2023-07-29T12:48:13;3.37;;;2.03;;
6095;SDS011;25081;42.698;23.298;2023-07-29T12:50:24;5.30;;;2.23;;
6095;SDS011;25081;42.698;23.298;2023-07-29T12:52:34;3.37;;;1.90;;
6095;SDS011;25081;42.698;23.298;2023-07-29T12:54:44;4.80;;;2.13;;
6095;SDS011;25081;42.698;23.298;2023-07-29T12:56:55;2.60;;;2.00;;
6095;SDS011;25081;42.698;23.298;2023-07-29T12:59:06;3.03;;;2.23;;
6095;SDS011;25081;42.698;23.298;2023-07-29T13:01:16;4.20;;;2.70;;
6095;SDS011;25081;42.698;23.298;2023-07-29T13:03:27;3.50;;;2.80;;
6095;SDS011;25081;42.698;23.298;2023-07-29T13:05:37;6.90;;;5.60;;
6095;SDS011;25081;42.698;23.298;2023-07-29T13:07:48;2.93;;;2.10;;
6095;SDS011;25081;42.698;23.298;2023-07-29T13:09:58;3.23;;;2.30;;
6095;SDS011;25081;42.698;23.298;2023-07-29T13:12:09;3.77;;;2.40;;
6095;SDS011;25081;42.698;23.298;2023-07-29T13:14:20;4.37;;;2.60;;